MDT,Max TemperatureF,Mean TemperatureF,Min TemperatureF,Max Dew PointF,MeanDew PointF,Min DewpointF,Max Humidity, Mean Humidity, Min Humidity, Max Sea Level PressureIn, Mean Sea Level PressureIn, Min Sea Level PressureIn, Max VisibilityMiles, Mean VisibilityMiles, Min VisibilityMiles, Max Wind SpeedMPH, Mean Wind SpeedMPH, Max Gust SpeedMPH,PrecipitationIn, CloudCover, Events, WindDirDegrees
2012-10-1,79,65,51,36,30,26,50,34,17,30.20,30.11,29.98,10,10,8,17,10,21,0.00,0,,222
2012-10-2,82,70,57,33,28,25,36,26,15,29.98,29.90,29.82,10,10,10,18,13,23,0.00,0,,218
2012-10-3,62,48,33,30,13,1,47,28,9,30.19,30.06,29.83,10,9,4,30,13,38,0.00,1,,230
2012-10-4,63,45,27,22,17,12,63,39,14,30.22,30.12,30.03,10,10,9,16,8,21,0.00,0,,106
2012-10-5,59,45,30,19,16,11,53,35,16,30.24,30.17,30.07,10,10,10,15,7,20,0.00,0,,220
2012-10-6,59,44,29,23,16,12,58,38,17,30.28,30.20,30.12,10,10,6,20,9,24,0.00,0,,94
2012-10-7,67,46,24,19,13,10,55,33,11,30.22,30.11,30.01,10,10,7,13,6,15,0.00,0,,177
2012-10-8,70,51,32,19,13,8,38,25,11,30.00,29.93,29.86,10,10,5,17,9,21,0.00,0,Snow,195
2012-10-9,69,56,42,23,14,9,41,27,13,29.99,29.94,29.87,10,10,8,15,8,18,0.00,0,,227
2012-10-10,71,54,36,32,20,15,49,32,15,30.03,29.92,29.83,10,10,8,13,6,15,0.00,0,,206
2012-10-11,76,59,42,33,28,20,57,37,16,29.93,29.85,29.77,10,8,2,14,6,16,0.00,0,,199
2012-10-12,75,60,45,37,31,25,58,40,22,29.91,29.78,29.70,10,8,2,18,10,22,0.00,1,,219
2012-10-13,67,58,49,42,37,25,64,47,30,30.21,30.04,29.82,10,8,5,30,19,38,T,3,,237
2012-10-14,76,62,47,37,35,29,61,40,18,30.24,30.15,29.98,10,9,4,18,10,21,0.00,0,,175
2012-10-15,72,62,52,41,36,29,59,43,27,30.03,29.93,29.85,10,10,9,21,11,24,0.00,2,,220
2012-10-16,69,56,42,51,41,23,89,63,36,30.05,29.82,29.68,10,10,7,47,19,71,0.10,4,Rain,249
2012-10-17,56,45,33,26,23,18,61,42,22,30.22,30.17,30.09,10,10,10,23,16,30,0.00,0,,224
2012-10-18,63,48,33,25,22,20,52,37,21,30.30,30.22,30.14,10,10,10,9,7,12,0.00,0,,181
2012-10-19,71,54,37,32,25,19,54,35,15,30.02,29.88,29.66,10,10,10,15,6,20,0.00,2,,200
2012-10-20,66,56,46,41,33,23,64,43,21,29.75,29.70,29.65,10,9,4,25,12,31,0.00,6,,248
2012-10-21,53,44,35,31,25,21,55,43,30,29.81,29.77,29.72,10,9,5,17,6,22,T,2,Snow,231
2012-10-22,50,45,39,41,35,24,82,66,49,29.72,29.65,29.58,10,8,2,22,8,31,0.36,8,Rain,218
2012-10-23,47,39,30,33,28,24,79,61,42,29.96,29.84,29.70,10,10,9,21,9,26,T,5,Snow,209
2012-10-24,47,35,22,34,26,17,84,65,45,30.09,30.01,29.95,10,10,8,15,6,18,T,3,Rain-Snow,185
2012-10-25,46,39,31,32,28,23,82,62,41,30.42,30.24,30.11,10,9,2,22,13,25,T,4,Snow,233
2012-10-26,53,40,26,28,21,13,78,49,19,30.44,30.29,30.13,10,10,3,18,7,24,T,3,,181
2012-10-27,58,47,35,35,28,24,70,49,28,30.17,30.10,30.03,10,9,1,14,9,22,0.00,5,,228
2012-10-28,67,58,49,42,40,36,61,49,37,30.05,30.00,29.94,10,10,10,15,8,20,T,6,Rain,214
2012-10-29,71,59,47,39,36,34,61,44,26,30.09,30.01,29.94,10,10,10,22,10,28,T,1,,207
2012-10-30,71,55,39,39,32,26,76,48,20,30.09,30.03,29.95,10,10,10,15,6,18,0.00,0,,149
2012-10-31,78,59,39,36,26,20,53,32,11,30.00,29.88,29.75,10,10,10,22,9,28,0.00,0,,145